createdAt,value
2022-11-29T00:03:37.461Z,15.68
2022-11-29T00:07:41.891Z,18.27
2022-11-29T00:12:02.397Z,17.73
2022-11-29T00:16:06.940Z,15.00
2022-11-29T00:20:11.551Z,19.50
2022-11-29T00:24:15.900Z,15.95
2022-11-29T00:28:18.904Z,22.05
2022-11-29T00:32:21.892Z,19.63
2022-11-29T00:36:25.185Z,20.17
2022-11-29T00:40:29.564Z,18.00
2022-11-29T00:44:32.809Z,18.83
2022-11-29T00:48:36.646Z,16.13
2022-11-29T00:52:39.666Z,13.60
2022-11-29T00:56:44.292Z,13.90
2022-11-29T01:00:47.701Z,15.68
2022-11-29T01:04:50.721Z,19.00
2022-11-29T01:08:54.472Z,18.60
2022-11-29T01:12:59.052Z,18.45
2022-11-29T01:17:02.338Z,19.08
2022-11-29T01:21:08.419Z,15.77
2022-11-29T01:25:13.804Z,15.43
2022-11-29T01:29:18.146Z,18.00
2022-11-29T01:33:21.544Z,18.02
2022-11-29T01:37:24.505Z,15.57
2022-11-29T01:41:30.168Z,14.70
2022-11-29T01:45:39.309Z,14.68
2022-11-29T01:49:45.384Z,15.25
2022-11-29T01:53:48.794Z,14.30
2022-11-29T01:57:51.838Z,14.55
2022-11-29T02:02:04.043Z,17.23
2022-11-29T02:06:08.499Z,17.30
2022-11-29T02:10:12.405Z,16.80
2022-11-29T02:14:34.409Z,17.30
2022-11-29T02:18:51.739Z,19.00
2022-11-29T02:23:00.452Z,18.90
2022-11-29T02:27:28.386Z,20.85
2022-11-29T02:31:53.673Z,18.67
2022-11-29T02:36:32.010Z,19.65
2022-11-29T02:41:08.721Z,18.08
2022-11-29T02:45:21.455Z,15.05
2022-11-29T02:49:37.200Z,16.98
2022-11-29T02:53:49.340Z,19.92
2022-11-29T02:57:59.932Z,18.20
2022-11-29T03:02:11.619Z,18.48
2022-11-29T03:06:23.357Z,19.60
2022-11-29T03:10:36.125Z,17.00
2022-11-29T03:14:53.399Z,19.00
2022-11-29T03:19:05.864Z,21.27
2022-11-29T03:23:20.723Z,16.92
2022-11-29T03:27:32.088Z,22.92
2022-11-29T03:31:40.285Z,22.27
2022-11-29T03:35:51.625Z,20.65
2022-11-29T03:40:00.796Z,20.33
2022-11-29T03:44:12.172Z,22.13
2022-11-29T03:48:22.077Z,20.10
2022-11-29T03:52:29.645Z,18.05
2022-11-29T03:56:35.460Z,19.92
2022-11-29T04:00:57.009Z,23.08
2022-11-29T04:05:20.183Z,20.13
2022-11-29T04:09:36.539Z,18.17
2022-11-29T04:14:29.306Z,19.00
2022-11-29T04:19:05.122Z,23.88
2022-11-29T04:23:46.700Z,19.35
2022-11-29T04:28:18.198Z,20.43
2022-11-29T04:32:50.080Z,21.15
2022-11-29T04:37:15.759Z,22.27
2022-11-29T04:41:42.087Z,20.83
2022-11-29T04:46:06.579Z,23.67
2022-11-29T04:50:28.035Z,22.80
2022-11-29T04:54:37.574Z,21.50
2022-11-29T04:58:51.258Z,24.07
2022-11-29T05:02:59.967Z,21.92
2022-11-29T05:07:08.394Z,21.70
2022-11-29T05:11:26.331Z,20.25
2022-11-29T05:15:55.416Z,26.88
2022-11-29T05:20:12.352Z,24.98
2022-11-29T05:24:28.920Z,20.25
2022-11-29T05:28:39.104Z,18.65
2022-11-29T05:32:58.185Z,21.00
2022-11-29T05:37:07.395Z,22.27
2022-11-29T05:41:26.362Z,23.65
2022-11-29T05:45:35.989Z,21.10
2022-11-29T05:49:48.251Z,21.40
2022-11-29T05:54:03.112Z,20.75
2022-11-29T05:58:13.396Z,19.42
2022-11-29T06:02:34.014Z,18.73
2022-11-29T06:06:44.959Z,20.90
2022-11-29T06:11:00.654Z,21.50
2022-11-29T06:15:25.408Z,21.33
2022-11-29T06:19:55.136Z,20.75
2022-11-29T06:24:25.873Z,24.63
2022-11-29T06:28:51.116Z,22.92
2022-11-29T06:33:11.456Z,20.55
2022-11-29T06:37:19.230Z,22.17
2022-11-29T06:41:25.240Z,19.05
2022-11-29T06:45:29.023Z,22.38
2022-11-29T06:49:37.763Z,20.40
2022-11-29T06:53:51.316Z,21.13
2022-11-29T06:58:04.275Z,20.52
2022-11-29T07:02:29.979Z,25.55
2022-11-29T07:06:35.485Z,20.33
2022-11-29T07:10:40.896Z,19.55
2022-11-29T07:14:46.463Z,22.42
2022-11-29T07:19:01.361Z,19.38
2022-11-29T07:23:14.186Z,19.73
2022-11-29T07:27:21.242Z,19.42
2022-11-29T07:31:33.541Z,20.70
2022-11-29T07:35:46.618Z,21.42
2022-11-29T07:40:00.755Z,20.83
2022-11-29T07:44:12.704Z,20.88
2022-11-29T07:48:18.360Z,18.60
2022-11-29T07:52:21.459Z,19.83
2022-11-29T07:56:24.472Z,17.70
2022-11-29T08:00:27.669Z,20.05
2022-11-29T08:04:32.268Z,17.55
2022-11-29T08:08:39.242Z,18.00
2022-11-29T08:12:50.035Z,21.65
2022-11-29T08:16:53.072Z,18.52
2022-11-29T08:20:57.602Z,19.48
2022-11-29T08:25:01.403Z,18.35
2022-11-29T08:29:04.440Z,16.95
2022-11-29T08:33:07.770Z,18.27
2022-11-29T08:37:12.211Z,16.63
2022-11-29T08:41:16.913Z,17.63
2022-11-29T08:45:20.057Z,17.13
2022-11-29T08:49:23.115Z,16.60
2022-11-29T08:53:42.846Z,18.63
2022-11-29T08:57:45.817Z,18.38
2022-11-29T09:01:49.077Z,16.23
2022-11-29T09:05:52.540Z,15.75
2022-11-29T09:09:56.921Z,18.95
2022-11-29T09:14:01.385Z,14.27
2022-11-29T09:18:05.261Z,14.75
2022-11-29T09:22:08.372Z,18.48
2022-11-29T09:26:19.587Z,16.33
2022-11-29T09:30:23.879Z,16.25
2022-11-29T09:34:27.036Z,16.48
2022-11-29T09:38:30.788Z,16.67
2022-11-29T09:42:47.106Z,14.82
2022-11-29T09:46:58.913Z,14.77
2022-11-29T09:51:11.339Z,14.38
2022-11-29T09:55:35.329Z,15.27
2022-11-29T09:59:44.223Z,15.13
2022-11-29T10:03:51.880Z,17.23
2022-11-29T10:08:01.771Z,15.00
2022-11-29T10:12:14.033Z,17.50
2022-11-29T10:16:26.526Z,14.13
2022-11-29T10:20:35.385Z,14.50
2022-11-29T10:24:47.552Z,14.50
2022-11-29T10:28:50.631Z,17.17
2022-11-29T10:33:01.614Z,14.88
2022-11-29T10:37:05.477Z,13.40
2022-11-29T10:41:12.249Z,14.20
2022-11-29T10:45:21.891Z,14.77
2022-11-29T10:49:28.976Z,17.15
2022-11-29T10:53:36.061Z,15.65
2022-11-29T10:58:09.155Z,13.55
2022-11-29T11:02:19.797Z,14.07
2022-11-29T11:06:27.557Z,16.10
2022-11-29T11:10:31.267Z,16.42
2022-11-29T11:14:37.701Z,17.25
2022-11-29T11:18:40.815Z,17.27
2022-11-29T11:22:45.468Z,16.10
2022-11-29T11:26:48.688Z,16.48
2022-11-29T11:30:55.397Z,13.05
2022-11-29T11:35:00.751Z,15.77
2022-11-29T11:39:13.918Z,14.23
2022-11-29T11:43:21.907Z,15.50
2022-11-29T11:47:27.539Z,16.42
2022-11-29T11:51:30.720Z,15.55
2022-11-29T11:55:38.447Z,15.50
2022-11-29T11:59:41.533Z,12.27
2022-11-29T12:03:55.706Z,17.60
2022-11-29T12:08:09.807Z,16.20
2022-11-29T12:12:16.722Z,12.63
2022-11-29T12:16:27.564Z,14.60
2022-11-29T12:20:33.596Z,14.75
2022-11-29T12:24:40.316Z,12.57
2022-11-29T12:28:47.096Z,12.18
2022-11-29T12:33:04.696Z,14.32
2022-11-29T12:37:16.477Z,14.38
2022-11-29T12:41:33.008Z,15.90
2022-11-29T12:45:45.255Z,13.77
2022-11-29T12:50:01.507Z,14.80
2022-11-29T12:54:31.887Z,14.48
2022-11-29T12:58:46.447Z,14.75
2022-11-29T13:03:06.744Z,14.60
2022-11-29T13:07:20.559Z,13.65
2022-11-29T13:11:27.013Z,13.23
2022-11-29T13:15:39.178Z,17.02
2022-11-29T13:19:50.763Z,11.90
2022-11-29T13:24:08.304Z,13.13
2022-11-29T13:28:22.193Z,14.98
2022-11-29T13:32:36.297Z,18.52
2022-11-29T13:36:53.045Z,13.73
2022-11-29T13:41:00.816Z,14.85
2022-11-29T13:45:16.424Z,15.25
2022-11-29T13:49:32.175Z,17.60
2022-11-29T13:53:48.901Z,13.52
2022-11-29T13:58:15.547Z,12.82
2022-11-29T14:02:29.850Z,15.55
2022-11-29T14:06:34.484Z,13.00
2022-11-29T14:10:39.468Z,14.68
2022-11-29T14:14:52.678Z,16.83
2022-11-29T14:19:22.135Z,18.58
2022-11-29T14:23:34.557Z,14.23
2022-11-29T14:28:00.669Z,15.77
2022-11-29T14:32:04.831Z,18.33
2022-11-29T14:36:31.601Z,18.95
2022-11-29T14:40:44.223Z,16.02
2022-11-29T14:44:52.227Z,15.52
2022-11-29T14:49:01.502Z,18.40
2022-11-29T14:53:05.960Z,16.13
2022-11-29T14:57:48.365Z,13.80
2022-11-29T15:01:53.592Z,16.90
2022-11-29T15:06:00.731Z,18.30
2022-11-29T15:10:06.427Z,15.32
2022-11-29T15:14:19.638Z,14.75
2022-11-29T15:18:44.236Z,18.70
2022-11-29T15:22:52.515Z,17.05
2022-11-29T15:26:57.388Z,14.48
2022-11-29T15:31:05.075Z,15.90
2022-11-29T15:35:18.561Z,17.63
2022-11-29T15:39:27.816Z,19.65
2022-11-29T15:43:36.048Z,14.30
2022-11-29T15:47:39.192Z,17.20
2022-11-29T15:51:44.238Z,19.48
2022-11-29T15:55:49.989Z,18.35
2022-11-29T15:59:56.358Z,19.02
2022-11-29T16:03:59.824Z,18.02
2022-11-29T16:08:08.211Z,20.33
2022-11-29T16:12:14.712Z,17.90
2022-11-29T16:16:22.051Z,16.95
2022-11-29T16:20:27.239Z,18.83
2022-11-29T16:24:35.262Z,23.40
2022-11-29T16:28:43.664Z,20.25
2022-11-29T16:32:52.272Z,19.70
2022-11-29T16:37:06.650Z,20.52
2022-11-29T16:41:24.213Z,21.20
2022-11-29T16:45:35.477Z,21.10
2022-11-29T16:49:38.868Z,20.97
2022-11-29T16:53:43.407Z,19.58
2022-11-29T16:57:48.946Z,20.30
2022-11-29T17:01:52.717Z,20.08
2022-11-29T17:05:56.176Z,17.57
2022-11-29T17:10:00.417Z,21.42
2022-11-29T17:14:04.794Z,19.30
2022-11-29T17:18:07.781Z,20.02
2022-11-29T17:22:10.742Z,19.50
2022-11-29T17:26:15.483Z,21.88
2022-11-29T17:30:19.978Z,19.75
2022-11-29T17:34:23.096Z,18.70
2022-11-29T17:38:26.385Z,20.08
2022-11-29T17:42:29.575Z,22.20
2022-11-29T17:46:35.943Z,18.88
2022-11-29T17:50:39.585Z,18.48
2022-11-29T17:54:42.622Z,19.77
2022-11-29T17:58:46.016Z,20.98
2022-11-29T18:02:50.474Z,21.50
2022-11-29T18:06:53.476Z,25.27
2022-11-29T18:11:04.321Z,21.33
2022-11-29T18:15:08.071Z,19.70
2022-11-29T18:19:15.778Z,22.67
2022-11-29T18:23:18.721Z,20.80
2022-11-29T18:27:21.791Z,21.67
2022-11-29T18:31:28.248Z,21.67
2022-11-29T18:35:32.940Z,23.67
2022-11-29T18:39:35.975Z,21.00
2022-11-29T18:43:40.220Z,22.65
2022-11-29T18:47:44.465Z,22.65
2022-11-29T18:51:50.318Z,20.85
2022-11-29T18:56:01.022Z,21.42
2022-11-29T19:00:04.782Z,22.70
2022-11-29T19:04:09.619Z,22.02
2022-11-29T19:08:14.038Z,22.13
2022-11-29T19:12:17.029Z,25.47
2022-11-29T19:16:20.640Z,23.63
2022-11-29T19:20:23.792Z,26.35
2022-11-29T19:24:28.119Z,25.77
2022-11-29T19:28:31.411Z,25.33
2022-11-29T19:32:34.574Z,26.35
2022-11-29T19:36:42.852Z,21.10
2022-11-29T19:40:47.882Z,25.52
2022-11-29T19:49:13.947Z,21.13
2022-11-29T19:53:17.355Z,21.90
2022-11-29T19:57:21.681Z,21.70
2022-11-29T20:01:35.951Z,22.65
2022-11-29T20:05:42.603Z,25.40
2022-11-29T20:09:45.825Z,23.65
2022-11-29T20:13:55.277Z,29.35
2022-11-29T20:17:58.202Z,24.95
2022-11-29T20:22:01.783Z,23.50
2022-11-29T20:26:05.776Z,26.30
2022-11-29T20:30:11.604Z,24.90
2022-11-29T20:34:15.382Z,25.88
2022-11-29T20:38:32.048Z,21.42
2022-11-29T20:42:53.770Z,24.48
2022-11-29T20:46:59.344Z,22.43
2022-11-29T20:51:03.583Z,23.00
2022-11-29T20:55:07.349Z,23.00
2022-11-29T20:59:10.552Z,20.40
2022-11-29T21:03:16.086Z,23.53
2022-11-29T21:07:19.355Z,30.25
2022-11-29T21:11:22.960Z,21.83
2022-11-29T21:15:28.104Z,24.52
2022-11-29T21:19:33.336Z,26.27
2022-11-29T21:23:56.059Z,21.95
2022-11-29T21:28:01.462Z,21.83
2022-11-29T21:32:05.220Z,25.83
2022-11-29T21:36:10.675Z,22.88
2022-11-29T21:40:15.890Z,23.57
2022-11-29T21:44:18.872Z,24.87
2022-11-29T21:48:37.710Z,23.65
2022-11-29T21:52:42.145Z,25.50
2022-11-29T21:56:45.256Z,24.30
2022-11-29T22:00:48.316Z,24.67
2022-11-29T22:04:53.145Z,25.48
2022-11-29T22:08:59.886Z,28.88
2022-11-29T22:13:02.846Z,27.80
2022-11-29T22:17:05.866Z,23.33
2022-11-29T22:21:09.148Z,23.93
2022-11-29T22:25:13.568Z,23.73
2022-11-29T22:29:17.024Z,24.43
2022-11-29T22:33:19.984Z,24.92
2022-11-29T22:37:23.158Z,22.00
2022-11-29T22:41:27.551Z,25.97
2022-11-29T22:45:30.506Z,24.85
2022-11-29T22:49:34.115Z,24.27
2022-11-29T22:53:38.867Z,25.52
2022-11-29T22:57:43.304Z,19.73
2022-11-29T23:01:47.224Z,21.88
2022-11-29T23:05:50.499Z,24.65
2022-11-29T23:09:55.171Z,23.00
2022-11-29T23:13:59.709Z,26.67
2022-11-29T23:18:02.934Z,22.63
2022-11-29T23:22:05.983Z,25.70
2022-11-29T23:26:10.114Z,23.35
2022-11-29T23:30:16.737Z,23.05
2022-11-29T23:34:19.884Z,23.42
2022-11-29T23:38:22.872Z,23.57
2022-11-29T23:42:26.017Z,23.20
2022-11-29T23:46:30.332Z,26.25
2022-11-29T23:50:33.402Z,23.58
2022-11-29T23:54:36.371Z,23.20
2022-11-29T23:58:39.904Z,26.70
